sensor_id;sensor_type;location;lat;lon;timestamp;pressure;altitude;pressure_sealevel;temperature;humidity
58761;BME280;44529;47.464;19.014;2022-09-06T00:00:49;100756.94;;;19.62;60.88
58761;BME280;44529;47.464;19.014;2022-09-06T00:03:52;100750.28;;;19.63;60.53
58761;BME280;44529;47.464;19.014;2022-09-06T00:06:54;100746.50;;;19.52;61.56
58761;BME280;44529;47.464;19.014;2022-09-06T00:09:57;100752.13;;;19.40;63.18
58761;BME280;44529;47.464;19.014;2022-09-06T00:13:09;100751.66;;;19.38;62.64
58761;BME280;44529;47.464;19.014;2022-09-06T00:16:17;100745.59;;;19.29;63.21
58761;BME280;44529;47.464;19.014;2022-09-06T00:19:20;100747.75;;;19.19;63.92
58761;BME280;44529;47.464;19.014;2022-09-06T00:22:23;100750.31;;;19.12;63.73
58761;BME280;44529;47.464;19.014;2022-09-06T00:25:25;100745.56;;;19.09;64.35
58761;BME280;44529;47.464;19.014;2022-09-06T00:28:28;100750.34;;;18.97;65.03
58761;BME280;44529;47.464;19.014;2022-09-06T00:31:30;100747.72;;;18.84;65.75
58761;BME280;44529;47.464;19.014;2022-09-06T00:34:33;100760.50;;;18.80;66.01
58761;BME280;44529;47.464;19.014;2022-09-06T00:37:36;100754.41;;;18.87;64.84
58761;BME280;44529;47.464;19.014;2022-09-06T00:40:38;100747.44;;;18.89;66.04
58761;BME280;44529;47.464;19.014;2022-09-06T00:43:41;100748.94;;;18.87;65.41
58761;BME280;44529;47.464;19.014;2022-09-06T00:46:45;100743.81;;;18.85;65.51
58761;BME280;44529;47.464;19.014;2022-09-06T00:49:52;100747.00;;;18.87;65.37
58761;BME280;44529;47.464;19.014;2022-09-06T00:52:56;100746.19;;;18.87;65.46
58761;BME280;44529;47.464;19.014;2022-09-06T00:55:59;100742.59;;;18.83;65.90
58761;BME280;44529;47.464;19.014;2022-09-06T00:59:02;100748.69;;;18.76;66.45
58761;BME280;44529;47.464;19.014;2022-09-06T01:02:05;100750.62;;;18.76;66.08
58761;BME280;44529;47.464;19.014;2022-09-06T01:05:09;100755.75;;;18.77;65.98
58761;BME280;44529;47.464;19.014;2022-09-06T01:18:56;100747.97;;;18.63;67.22
58761;BME280;44529;47.464;19.014;2022-09-06T01:28:30;100756.09;;;18.91;65.10
58761;BME280;44529;47.464;19.014;2022-09-06T01:31:50;100749.56;;;18.96;64.51
58761;BME280;44529;47.464;19.014;2022-09-06T01:34:59;100750.00;;;18.98;64.30
58761;BME280;44529;47.464;19.014;2022-09-06T01:38:04;100738.31;;;19.01;64.12
58761;BME280;44529;47.464;19.014;2022-09-06T01:41:09;100744.25;;;19.03;63.70
58761;BME280;44529;47.464;19.014;2022-09-06T01:44:11;100741.22;;;19.08;63.58
58761;BME280;44529;47.464;19.014;2022-09-06T01:54:35;100745.72;;;19.16;62.50
58761;BME280;44529;47.464;19.014;2022-09-06T01:58:14;100741.66;;;19.10;63.25
58761;BME280;44529;47.464;19.014;2022-09-06T02:01:30;100732.22;;;19.08;63.50
58761;BME280;44529;47.464;19.014;2022-09-06T02:04:57;100727.88;;;19.07;62.14
58761;BME280;44529;47.464;19.014;2022-09-06T02:08:30;100731.75;;;19.06;62.85
58761;BME280;44529;47.464;19.014;2022-09-06T02:11:39;100743.44;;;19.03;62.80
58761;BME280;44529;47.464;19.014;2022-09-06T02:15:06;100742.50;;;18.95;63.59
58761;BME280;44529;47.464;19.014;2022-09-06T02:18:14;100732.31;;;18.80;65.57
58761;BME280;44529;47.464;19.014;2022-09-06T02:21:21;100728.25;;;18.74;65.15
58761;BME280;44529;47.464;19.014;2022-09-06T02:24:30;100725.97;;;18.76;64.44
58761;BME280;44529;47.464;19.014;2022-09-06T02:27:33;100721.81;;;18.82;64.67
58761;BME280;44529;47.464;19.014;2022-09-06T02:30:40;100731.63;;;18.83;64.93
58761;BME280;44529;47.464;19.014;2022-09-06T02:33:44;100725.25;;;18.79;64.54
58761;BME280;44529;47.464;19.014;2022-09-06T02:36:47;100725.09;;;18.72;65.41
58761;BME280;44529;47.464;19.014;2022-09-06T02:39:49;100736.78;;;18.69;65.00
58761;BME280;44529;47.464;19.014;2022-09-06T02:42:52;100732.09;;;18.69;64.91
58761;BME280;44529;47.464;19.014;2022-09-06T02:45:55;100724.19;;;18.67;65.17
58761;BME280;44529;47.464;19.014;2022-09-06T02:48:57;100729.41;;;18.73;64.37
58761;BME280;44529;47.464;19.014;2022-09-06T02:51:59;100728.19;;;18.70;64.67
58761;BME280;44529;47.464;19.014;2022-09-06T02:55:02;100733.00;;;18.61;66.33
58761;BME280;44529;47.464;19.014;2022-09-06T02:58:08;100733.28;;;18.56;66.36
58761;BME280;44529;47.464;19.014;2022-09-06T03:01:10;100726.72;;;18.60;65.46
58761;BME280;44529;47.464;19.014;2022-09-06T03:04:13;100722.41;;;18.59;65.36
58761;BME280;44529;47.464;19.014;2022-09-06T03:07:16;100724.53;;;18.50;65.89
58761;BME280;44529;47.464;19.014;2022-09-06T03:10:18;100726.03;;;18.48;66.46
58761;BME280;44529;47.464;19.014;2022-09-06T03:13:21;100718.87;;;18.43;66.51
58761;BME280;44529;47.464;19.014;2022-09-06T03:16:24;100721.87;;;18.38;67.55
58761;BME280;44529;47.464;19.014;2022-09-06T03:19:26;100722.56;;;18.35;66.56
58761;BME280;44529;47.464;19.014;2022-09-06T03:22:29;100726.28;;;18.27;67.31
58761;BME280;44529;47.464;19.014;2022-09-06T03:25:32;100726.03;;;18.32;65.79
58761;BME280;44529;47.464;19.014;2022-09-06T03:28:34;100720.81;;;18.27;65.93
58761;BME280;44529;47.464;19.014;2022-09-06T03:31:36;100716.84;;;18.24;65.93
58761;BME280;44529;47.464;19.014;2022-09-06T03:34:38;100712.22;;;18.28;65.14
58761;BME280;44529;47.464;19.014;2022-09-06T03:37:41;100722.66;;;18.23;66.16
58761;BME280;44529;47.464;19.014;2022-09-06T03:40:47;100716.84;;;18.24;64.85
58761;BME280;44529;47.464;19.014;2022-09-06T03:43:50;100714.19;;;18.28;65.12
58761;BME280;44529;47.464;19.014;2022-09-06T03:46:52;100713.03;;;18.29;64.29
58761;BME280;44529;47.464;19.014;2022-09-06T03:49:54;100719.47;;;18.21;65.23
58761;BME280;44529;47.464;19.014;2022-09-06T03:52:56;100724.25;;;18.24;64.42
58761;BME280;44529;47.464;19.014;2022-09-06T03:55:59;100728.47;;;18.21;64.76
58761;BME280;44529;47.464;19.014;2022-09-06T03:59:01;100728.28;;;18.14;65.09
58761;BME280;44529;47.464;19.014;2022-09-06T04:02:03;100729.88;;;18.15;65.37
58761;BME280;44529;47.464;19.014;2022-09-06T04:05:07;100741.19;;;18.13;64.47
58761;BME280;44529;47.464;19.014;2022-09-06T04:08:10;100734.66;;;18.18;64.66
58761;BME280;44529;47.464;19.014;2022-09-06T04:11:12;100730.59;;;18.12;65.58
58761;BME280;44529;47.464;19.014;2022-09-06T04:14:14;100721.94;;;18.10;65.45
58761;BME280;44529;47.464;19.014;2022-09-06T04:17:17;100727.94;;;18.16;64.97
58761;BME280;44529;47.464;19.014;2022-09-06T04:20:19;100721.59;;;18.11;65.36
58761;BME280;44529;47.464;19.014;2022-09-06T04:23:23;100724.75;;;18.13;65.50
58761;BME280;44529;47.464;19.014;2022-09-06T04:26:26;100723.72;;;18.18;64.73
58761;BME280;44529;47.464;19.014;2022-09-06T04:29:28;100732.91;;;18.26;63.46
58761;BME280;44529;47.464;19.014;2022-09-06T04:32:30;100729.75;;;18.24;63.69
58761;BME280;44529;47.464;19.014;2022-09-06T04:35:33;100733.09;;;18.17;64.02
58761;BME280;44529;47.464;19.014;2022-09-06T04:38:38;100736.66;;;18.05;63.24
58761;BME280;44529;47.464;19.014;2022-09-06T04:41:41;100739.41;;;18.05;64.03
58761;BME280;44529;47.464;19.014;2022-09-06T04:44:43;100738.56;;;18.17;63.82
58761;BME280;44529;47.464;19.014;2022-09-06T04:47:46;100736.16;;;18.16;63.38
58761;BME280;44529;47.464;19.014;2022-09-06T04:50:48;100733.62;;;18.23;61.82
58761;BME280;44529;47.464;19.014;2022-09-06T04:53:50;100728.41;;;18.18;61.46
58761;BME280;44529;47.464;19.014;2022-09-06T04:56:52;100726.09;;;18.20;61.63
58761;BME280;44529;47.464;19.014;2022-09-06T04:59:55;100732.37;;;18.20;62.05
58761;BME280;44529;47.464;19.014;2022-09-06T05:02:57;100730.16;;;18.26;60.78
58761;BME280;44529;47.464;19.014;2022-09-06T05:06:12;100720.62;;;18.20;61.32
58761;BME280;44529;47.464;19.014;2022-09-06T05:09:14;100725.41;;;18.23;61.53
58761;BME280;44529;47.464;19.014;2022-09-06T05:12:16;100723.38;;;18.20;61.47
58761;BME280;44529;47.464;19.014;2022-09-06T05:15:20;100727.69;;;18.21;61.78
58761;BME280;44529;47.464;19.014;2022-09-06T05:18:22;100731.38;;;18.12;63.06
58761;BME280;44529;47.464;19.014;2022-09-06T05:21:24;100730.41;;;18.05;63.01
58761;BME280;44529;47.464;19.014;2022-09-06T05:24:27;100732.00;;;18.06;62.24
58761;BME280;44529;47.464;19.014;2022-09-06T05:27:29;100731.63;;;17.92;62.53
58761;BME280;44529;47.464;19.014;2022-09-06T05:30:31;100731.25;;;17.93;63.64
58761;BME280;44529;47.464;19.014;2022-09-06T05:33:33;100735.22;;;17.96;62.81
58761;BME280;44529;47.464;19.014;2022-09-06T05:36:36;100727.31;;;18.06;61.69
58761;BME280;44529;47.464;19.014;2022-09-06T05:39:39;100734.81;;;18.09;63.52
58761;BME280;44529;47.464;19.014;2022-09-06T05:42:42;100730.75;;;18.03;62.96
58761;BME280;44529;47.464;19.014;2022-09-06T05:45:44;100730.53;;;18.24;60.59
58761;BME280;44529;47.464;19.014;2022-09-06T05:48:55;100740.81;;;18.15;60.60
58761;BME280;44529;47.464;19.014;2022-09-06T05:51:58;100741.63;;;18.16;61.88
58761;BME280;44529;47.464;19.014;2022-09-06T05:55:02;100741.63;;;18.16;60.96
58761;BME280;44529;47.464;19.014;2022-09-06T05:58:05;100740.62;;;18.36;59.76
58761;BME280;44529;47.464;19.014;2022-09-06T06:01:24;100733.34;;;18.28;61.73
58761;BME280;44529;47.464;19.014;2022-09-06T06:04:28;100736.62;;;18.33;59.97
58761;BME280;44529;47.464;19.014;2022-09-06T06:07:30;100739.28;;;18.30;59.92
58761;BME280;44529;47.464;19.014;2022-09-06T06:10:32;100734.94;;;18.29;60.19
58761;BME280;44529;47.464;19.014;2022-09-06T06:13:40;100730.00;;;18.34;60.06
58761;BME280;44529;47.464;19.014;2022-09-06T06:16:42;100734.34;;;18.35;61.00
58761;BME280;44529;47.464;19.014;2022-09-06T06:19:45;100737.53;;;18.37;61.37
58761;BME280;44529;47.464;19.014;2022-09-06T06:22:47;100727.78;;;18.40;60.74
58761;BME280;44529;47.464;19.014;2022-09-06T06:25:49;100732.13;;;18.41;61.51
58761;BME280;44529;47.464;19.014;2022-09-06T06:28:52;100734.59;;;18.46;59.75
58761;BME280;44529;47.464;19.014;2022-09-06T06:31:54;100733.91;;;18.49;60.19
58761;BME280;44529;47.464;19.014;2022-09-06T06:34:57;100726.81;;;18.48;60.12
58761;BME280;44529;47.464;19.014;2022-09-06T06:37:59;100736.19;;;18.47;59.32
58761;BME280;44529;47.464;19.014;2022-09-06T06:41:04;100731.16;;;18.49;59.54
58761;BME280;44529;47.464;19.014;2022-09-06T06:44:08;100732.03;;;18.53;57.40
58761;BME280;44529;47.464;19.014;2022-09-06T06:47:10;100734.44;;;18.55;58.70
58761;BME280;44529;47.464;19.014;2022-09-06T06:50:12;100732.22;;;18.60;57.80
58761;BME280;44529;47.464;19.014;2022-09-06T06:53:15;100745.78;;;18.69;55.78
58761;BME280;44529;47.464;19.014;2022-09-06T06:56:33;100741.97;;;18.74;56.47
58761;BME280;44529;47.464;19.014;2022-09-06T06:59:43;100747.00;;;18.72;57.30
58761;BME280;44529;47.464;19.014;2022-09-06T07:02:45;100744.53;;;18.66;57.29
58761;BME280;44529;47.464;19.014;2022-09-06T07:05:47;100748.94;;;18.71;57.91
58761;BME280;44529;47.464;19.014;2022-09-06T07:09:09;100749.75;;;18.72;57.58
58761;BME280;44529;47.464;19.014;2022-09-06T07:12:12;100759.66;;;18.76;58.41
58761;BME280;44529;47.464;19.014;2022-09-06T07:15:14;100748.50;;;18.85;58.55
58761;BME280;44529;47.464;19.014;2022-09-06T07:18:17;100755.72;;;18.93;58.05
58761;BME280;44529;47.464;19.014;2022-09-06T07:21:22;100751.25;;;19.01;57.58
58761;BME280;44529;47.464;19.014;2022-09-06T07:24:35;100753.34;;;19.07;57.53
58761;BME280;44529;47.464;19.014;2022-09-06T07:27:38;100751.94;;;19.13;58.42
58761;BME280;44529;47.464;19.014;2022-09-06T07:30:52;100758.00;;;19.23;58.45
58761;BME280;44529;47.464;19.014;2022-09-06T07:33:55;100755.81;;;19.47;56.63
58761;BME280;44529;47.464;19.014;2022-09-06T07:36:57;100756.88;;;19.78;56.23
58761;BME280;44529;47.464;19.014;2022-09-06T07:39:59;100752.66;;;20.23;53.71
58761;BME280;44529;47.464;19.014;2022-09-06T07:43:02;100753.41;;;20.89;51.98
58761;BME280;44529;47.464;19.014;2022-09-06T07:46:12;100756.56;;;21.44;50.48
58761;BME280;44529;47.464;19.014;2022-09-06T07:49:15;100760.34;;;21.92;50.47
58761;BME280;44529;47.464;19.014;2022-09-06T07:52:17;100750.25;;;22.40;47.95
58761;BME280;44529;47.464;19.014;2022-09-06T07:55:39;100757.25;;;22.79;47.53
58761;BME280;44529;47.464;19.014;2022-09-06T07:58:41;100755.59;;;23.15;46.26
58761;BME280;44529;47.464;19.014;2022-09-06T08:01:44;100759.56;;;23.21;45.19
58761;BME280;44529;47.464;19.014;2022-09-06T08:04:48;100765.06;;;23.17;44.06
58761;BME280;44529;47.464;19.014;2022-09-06T08:07:52;100756.66;;;23.62;45.34
58761;BME280;44529;47.464;19.014;2022-09-06T08:11:15;100760.44;;;24.30;43.87
58761;BME280;44529;47.464;19.014;2022-09-06T08:14:17;100757.75;;;24.80;42.08
58761;BME280;44529;47.464;19.014;2022-09-06T08:17:21;100756.13;;;25.11;42.33
58761;BME280;44529;47.464;19.014;2022-09-06T08:20:23;100753.00;;;24.88;41.69
58761;BME280;44529;47.464;19.014;2022-09-06T08:23:26;100746.28;;;24.56;42.39
58761;BME280;44529;47.464;19.014;2022-09-06T08:26:31;100747.44;;;24.59;42.59
58761;BME280;44529;47.464;19.014;2022-09-06T08:29:34;100744.69;;;24.55;42.46
58761;BME280;44529;47.464;19.014;2022-09-06T08:32:36;100740.34;;;25.08;40.45
58761;BME280;44529;47.464;19.014;2022-09-06T08:35:40;100737.88;;;25.46;39.68
58761;BME280;44529;47.464;19.014;2022-09-06T08:38:42;100740.56;;;25.60;39.65
58761;BME280;44529;47.464;19.014;2022-09-06T08:41:55;100734.69;;;25.44;39.97
58761;BME280;44529;47.464;19.014;2022-09-06T08:45:00;100736.97;;;25.70;40.91
58761;BME280;44529;47.464;19.014;2022-09-06T08:48:05;100736.09;;;25.91;40.33
58761;BME280;44529;47.464;19.014;2022-09-06T09:01:32;100730.81;;;26.14;38.62
58761;BME280;44529;47.464;19.014;2022-09-06T09:04:47;100732.25;;;25.63;40.20
58761;BME280;44529;47.464;19.014;2022-09-06T09:07:55;100724.31;;;25.73;41.16
58761;BME280;44529;47.464;19.014;2022-09-06T09:11:05;100719.84;;;25.93;40.34
58761;BME280;44529;47.464;19.014;2022-09-06T09:14:18;100717.88;;;25.93;40.86
58761;BME280;44529;47.464;19.014;2022-09-06T09:17:26;100726.09;;;26.11;39.98
58761;BME280;44529;47.464;19.014;2022-09-06T09:20:30;100727.81;;;25.87;39.91
58761;BME280;44529;47.464;19.014;2022-09-06T09:23:32;100718.81;;;25.58;40.79
58761;BME280;44529;47.464;19.014;2022-09-06T09:26:44;100718.44;;;25.49;40.47
58761;BME280;44529;47.464;19.014;2022-09-06T09:33:46;100698.78;;;25.22;42.40
58761;BME280;44529;47.464;19.014;2022-09-06T09:36:48;100688.59;;;25.96;41.59
58761;BME280;44529;47.464;19.014;2022-09-06T09:43:36;100682.97;;;26.96;38.86
58761;BME280;44529;47.464;19.014;2022-09-06T09:46:39;100673.75;;;27.10;38.58
58761;BME280;44529;47.464;19.014;2022-09-06T09:49:42;100675.66;;;27.17;38.33
58761;BME280;44529;47.464;19.014;2022-09-06T09:52:45;100670.22;;;27.03;38.58
58761;BME280;44529;47.464;19.014;2022-09-06T09:55:50;100668.97;;;27.11;38.76
58761;BME280;44529;47.464;19.014;2022-09-06T09:58:56;100668.78;;;26.91;38.79
58761;BME280;44529;47.464;19.014;2022-09-06T10:02:01;100664.72;;;26.99;38.89
58761;BME280;44529;47.464;19.014;2022-09-06T10:05:19;100658.13;;;26.86;39.13
58761;BME280;44529;47.464;19.014;2022-09-06T10:08:23;100647.66;;;26.63;39.93
58761;BME280;44529;47.464;19.014;2022-09-06T10:11:56;100653.41;;;26.41;40.15
58761;BME280;44529;47.464;19.014;2022-09-06T10:14:58;100639.59;;;26.31;41.38
58761;BME280;44529;47.464;19.014;2022-09-06T10:18:32;100638.94;;;26.12;42.62
58761;BME280;44529;47.464;19.014;2022-09-06T10:21:34;100643.50;;;26.40;41.26
58761;BME280;44529;47.464;19.014;2022-09-06T10:38:35;100622.31;;;26.61;41.49
58761;BME280;44529;47.464;19.014;2022-09-06T10:45:15;100609.94;;;26.28;42.87
58761;BME280;44529;47.464;19.014;2022-09-06T10:48:31;100611.75;;;26.49;41.53
58761;BME280;44529;47.464;19.014;2022-09-06T10:51:47;100599.34;;;26.60;41.32
58761;BME280;44529;47.464;19.014;2022-09-06T10:54:52;100603.94;;;26.74;41.94
58761;BME280;44529;47.464;19.014;2022-09-06T10:58:00;100601.25;;;27.01;41.27
58761;BME280;44529;47.464;19.014;2022-09-06T11:01:28;100598.78;;;27.10;40.40
58761;BME280;44529;47.464;19.014;2022-09-06T11:04:35;100601.53;;;27.14;39.78
58761;BME280;44529;47.464;19.014;2022-09-06T11:08:00;100606.66;;;27.15;40.95
58761;BME280;44529;47.464;19.014;2022-09-06T11:14:45;100594.25;;;27.23;41.37
58761;BME280;44529;47.464;19.014;2022-09-06T11:17:58;100594.38;;;27.43;41.23
58761;BME280;44529;47.464;19.014;2022-09-06T11:24:29;100587.13;;;27.49;40.13
58761;BME280;44529;47.464;19.014;2022-09-06T11:27:36;100590.59;;;27.30;40.06
58761;BME280;44529;47.464;19.014;2022-09-06T11:30:43;100591.34;;;27.00;40.72
58761;BME280;44529;47.464;19.014;2022-09-06T11:33:46;100580.13;;;26.77;41.00
58761;BME280;44529;47.464;19.014;2022-09-06T11:36:53;100576.81;;;26.89;42.50
58761;BME280;44529;47.464;19.014;2022-09-06T11:40:12;100579.78;;;27.09;40.51
58761;BME280;44529;47.464;19.014;2022-09-06T11:43:49;100557.56;;;27.09;40.64
58761;BME280;44529;47.464;19.014;2022-09-06T11:49:57;100561.09;;;27.40;41.31
58761;BME280;44529;47.464;19.014;2022-09-06T11:53:13;100562.31;;;27.66;40.79
58761;BME280;44529;47.464;19.014;2022-09-06T11:56:28;100546.78;;;27.68;39.46
58761;BME280;44529;47.464;19.014;2022-09-06T11:59:33;100548.94;;;27.57;39.89
58761;BME280;44529;47.464;19.014;2022-09-06T12:02:40;100546.75;;;27.45;40.20
58761;BME280;44529;47.464;19.014;2022-09-06T12:06:29;100549.34;;;27.29;39.18
58761;BME280;44529;47.464;19.014;2022-09-06T12:09:35;100536.25;;;27.29;39.90
58761;BME280;44529;47.464;19.014;2022-09-06T12:12:43;100534.56;;;27.35;39.48
58761;BME280;44529;47.464;19.014;2022-09-06T12:15:53;100533.78;;;27.35;39.70
58761;BME280;44529;47.464;19.014;2022-09-06T12:18:57;100524.53;;;27.45;39.53
58761;BME280;44529;47.464;19.014;2022-09-06T12:22:00;100516.88;;;27.52;39.28
58761;BME280;44529;47.464;19.014;2022-09-06T12:25:05;100519.28;;;27.77;39.82
58761;BME280;44529;47.464;19.014;2022-09-06T12:28:21;100518.25;;;27.91;39.21
58761;BME280;44529;47.464;19.014;2022-09-06T12:31:36;100509.16;;;27.87;37.04
58761;BME280;44529;47.464;19.014;2022-09-06T12:34:43;100506.34;;;27.91;37.98
58761;BME280;44529;47.464;19.014;2022-09-06T12:37:53;100492.00;;;27.92;37.37
58761;BME280;44529;47.464;19.014;2022-09-06T12:40:57;100483.94;;;27.78;37.07
58761;BME280;44529;47.464;19.014;2022-09-06T12:44:03;100481.66;;;27.69;36.63
58761;BME280;44529;47.464;19.014;2022-09-06T12:47:12;100478.59;;;27.87;36.87
58761;BME280;44529;47.464;19.014;2022-09-06T12:50:20;100472.19;;;27.90;37.16
58761;BME280;44529;47.464;19.014;2022-09-06T12:53:22;100475.97;;;28.00;37.32
58761;BME280;44529;47.464;19.014;2022-09-06T12:56:29;100477.50;;;28.04;36.82
58761;BME280;44529;47.464;19.014;2022-09-06T12:59:33;100469.94;;;28.05;37.07
58761;BME280;44529;47.464;19.014;2022-09-06T13:02:49;100466.84;;;27.99;37.98
58761;BME280;44529;47.464;19.014;2022-09-06T13:05:54;100458.13;;;27.77;38.69
58761;BME280;44529;47.464;19.014;2022-09-06T13:08:57;100451.84;;;27.73;39.21
58761;BME280;44529;47.464;19.014;2022-09-06T13:12:16;100450.16;;;27.79;39.39
58761;BME280;44529;47.464;19.014;2022-09-06T13:15:25;100438.09;;;27.63;37.96
58761;BME280;44529;47.464;19.014;2022-09-06T13:18:35;100440.37;;;27.71;38.29
58761;BME280;44529;47.464;19.014;2022-09-06T13:21:39;100443.25;;;27.64;39.88
58761;BME280;44529;47.464;19.014;2022-09-06T13:24:44;100437.91;;;27.50;40.10
58761;BME280;44529;47.464;19.014;2022-09-06T13:27:50;100437.37;;;27.35;41.55
58761;BME280;44529;47.464;19.014;2022-09-06T13:31:10;100429.69;;;27.19;40.49
58761;BME280;44529;47.464;19.014;2022-09-06T13:34:20;100429.09;;;27.05;41.21
58761;BME280;44529;47.464;19.014;2022-09-06T13:37:25;100434.44;;;26.92;41.53
58761;BME280;44529;47.464;19.014;2022-09-06T13:40:36;100422.25;;;26.86;40.47
58761;BME280;44529;47.464;19.014;2022-09-06T13:47:16;100418.88;;;26.71;41.19
58761;BME280;44529;47.464;19.014;2022-09-06T13:50:19;100408.16;;;26.73;41.84
58761;BME280;44529;47.464;19.014;2022-09-06T13:53:28;100404.22;;;26.70;41.80
58761;BME280;44529;47.464;19.014;2022-09-06T13:56:31;100400.72;;;26.66;42.34
58761;BME280;44529;47.464;19.014;2022-09-06T13:59:33;100402.84;;;26.55;41.33
58761;BME280;44529;47.464;19.014;2022-09-06T14:02:36;100404.44;;;26.53;41.66
58761;BME280;44529;47.464;19.014;2022-09-06T14:05:39;100404.41;;;26.56;42.87
58761;BME280;44529;47.464;19.014;2022-09-06T14:08:41;100398.97;;;26.49;43.41
58761;BME280;44529;47.464;19.014;2022-09-06T14:12:04;100393.88;;;26.44;44.12
58761;BME280;44529;47.464;19.014;2022-09-06T14:15:08;100397.13;;;26.35;43.90
58761;BME280;44529;47.464;19.014;2022-09-06T14:18:11;100383.81;;;26.23;43.80
58761;BME280;44529;47.464;19.014;2022-09-06T14:21:15;100383.50;;;26.17;43.73
58761;BME280;44529;47.464;19.014;2022-09-06T14:24:19;100385.56;;;26.10;44.35
58761;BME280;44529;47.464;19.014;2022-09-06T14:27:21;100384.88;;;26.02;44.45
58761;BME280;44529;47.464;19.014;2022-09-06T14:30:24;100377.81;;;25.94;45.47
58761;BME280;44529;47.464;19.014;2022-09-06T14:33:26;100380.59;;;25.94;45.70
58761;BME280;44529;47.464;19.014;2022-09-06T14:36:31;100383.00;;;25.88;45.23
58761;BME280;44529;47.464;19.014;2022-09-06T14:39:33;100375.19;;;25.83;44.84
58761;BME280;44529;47.464;19.014;2022-09-06T14:42:36;100374.41;;;25.79;45.37
58761;BME280;44529;47.464;19.014;2022-09-06T14:45:38;100374.06;;;25.74;45.71
58761;BME280;44529;47.464;19.014;2022-09-06T14:48:41;100375.28;;;25.73;46.14
58761;BME280;44529;47.464;19.014;2022-09-06T14:51:44;100377.25;;;25.69;46.39
58761;BME280;44529;47.464;19.014;2022-09-06T14:54:47;100374.97;;;25.63;46.64
58761;BME280;44529;47.464;19.014;2022-09-06T14:57:50;100373.00;;;25.60;46.77
58761;BME280;44529;47.464;19.014;2022-09-06T15:00:52;100374.62;;;25.54;47.72
58761;BME280;44529;47.464;19.014;2022-09-06T15:03:57;100378.31;;;25.44;47.49
58761;BME280;44529;47.464;19.014;2022-09-06T15:06:59;100379.94;;;25.38;47.85
58761;BME280;44529;47.464;19.014;2022-09-06T15:10:02;100385.50;;;25.34;47.61
58761;BME280;44529;47.464;19.014;2022-09-06T15:13:05;100387.50;;;25.30;48.88
58761;BME280;44529;47.464;19.014;2022-09-06T15:16:08;100399.06;;;25.22;52.03
58761;BME280;44529;47.464;19.014;2022-09-06T15:19:12;100401.97;;;25.00;55.40
58761;BME280;44529;47.464;19.014;2022-09-06T15:22:14;100407.59;;;24.79;56.46
58761;BME280;44529;47.464;19.014;2022-09-06T15:25:16;100414.47;;;24.56;59.37
58761;BME280;44529;47.464;19.014;2022-09-06T15:28:19;100420.13;;;24.17;61.92
58761;BME280;44529;47.464;19.014;2022-09-06T15:31:22;100424.47;;;24.08;61.20
58761;BME280;44529;47.464;19.014;2022-09-06T15:34:25;100418.59;;;23.98;60.64
58761;BME280;44529;47.464;19.014;2022-09-06T15:37:27;100415.00;;;24.01;60.95
58761;BME280;44529;47.464;19.014;2022-09-06T15:40:29;100412.69;;;23.82;64.54
58761;BME280;44529;47.464;19.014;2022-09-06T15:43:33;100419.03;;;23.65;64.24
58761;BME280;44529;47.464;19.014;2022-09-06T15:49:39;100404.03;;;23.41;68.21
58761;BME280;44529;47.464;19.014;2022-09-06T15:52:42;100393.78;;;23.20;70.02
58761;BME280;44529;47.464;19.014;2022-09-06T15:55:44;100401.66;;;23.00;71.73
58761;BME280;44529;47.464;19.014;2022-09-06T15:58:59;100401.16;;;22.73;71.90
58761;BME280;44529;47.464;19.014;2022-09-06T16:02:01;100401.12;;;22.59;73.85
58761;BME280;44529;47.464;19.014;2022-09-06T16:05:04;100395.63;;;22.55;75.34
58761;BME280;44529;47.464;19.014;2022-09-06T16:08:07;100388.12;;;22.49;76.03
58761;BME280;44529;47.464;19.014;2022-09-06T16:11:12;100405.84;;;22.51;75.85
58761;BME280;44529;47.464;19.014;2022-09-06T16:14:15;100409.72;;;22.39;76.63
58761;BME280;44529;47.464;19.014;2022-09-06T16:17:17;100411.72;;;22.42;74.63
58761;BME280;44529;47.464;19.014;2022-09-06T16:20:20;100406.19;;;22.46;74.15
58761;BME280;44529;47.464;19.014;2022-09-06T16:23:22;100408.53;;;22.40;73.29
58761;BME280;44529;47.464;19.014;2022-09-06T16:26:27;100403.81;;;22.37;71.20
58761;BME280;44529;47.464;19.014;2022-09-06T16:29:29;100420.34;;;22.37;70.13
58761;BME280;44529;47.464;19.014;2022-09-06T16:32:32;100429.81;;;22.47;66.94
58761;BME280;44529;47.464;19.014;2022-09-06T16:35:39;100432.63;;;22.54;67.87
58761;BME280;44529;47.464;19.014;2022-09-06T16:38:42;100423.16;;;22.52;68.37
58761;BME280;44529;47.464;19.014;2022-09-06T16:41:45;100412.53;;;22.57;66.08
58761;BME280;44529;47.464;19.014;2022-09-06T16:44:47;100407.00;;;22.54;69.23
58761;BME280;44529;47.464;19.014;2022-09-06T16:47:50;100417.66;;;22.52;70.03
58761;BME280;44529;47.464;19.014;2022-09-06T16:50:52;100414.06;;;22.44;73.46
58761;BME280;44529;47.464;19.014;2022-09-06T16:53:55;100408.50;;;22.33;72.13
58761;BME280;44529;47.464;19.014;2022-09-06T16:56:57;100401.41;;;22.25;74.36
58761;BME280;44529;47.464;19.014;2022-09-06T17:00:03;100395.06;;;22.21;69.17
58761;BME280;44529;47.464;19.014;2022-09-06T17:03:05;100401.38;;;22.22;72.22
58761;BME280;44529;47.464;19.014;2022-09-06T17:06:08;100404.50;;;22.20;70.68
58761;BME280;44529;47.464;19.014;2022-09-06T17:09:12;100408.88;;;22.28;69.21
58761;BME280;44529;47.464;19.014;2022-09-06T17:12:15;100411.25;;;22.33;65.32
58761;BME280;44529;47.464;19.014;2022-09-06T17:15:17;100417.19;;;22.35;64.59